Joaquín Rodríguez

Olheiro - Rosario Central
23 Abr 2028
Domingo
Processo

Personalidade

Adaptabilidade (18) Ambição (1) Controvérsia (9) Lealdade (4) Pressão (11) Profissionalismo (17) Espírito Esportivo (10) Temperamento (12)

Perfil

Estilo de Treinamento Democrático
Licença Continental C
Determinação 13
Gestão de Pessoas 9
Motivação 6
Disciplina 8
Satisfação no Trabalho
100%
Fadiga
0%
Função Olheiro
Salário 70.6K p/s
Contrato 14.03.2030

Desempenho

Comportamento Bom
Eficácia do Treinamento
45%
Desenvolvimento do Jogador
65%
Prevenção de Lesões
70%
Implementação Tática
60%

Eventos Recentes

Participou de uma reunião de recrutamento 7d atrás
Recomendou um alvo de transferência 7d atrás
Participou de uma reunião de recrutamento 14d atrás
Recomendou um alvo de transferência 14d atrás
Aniversário 14d atrás
Participou de uma reunião de recrutamento 21d atrás
Recomendou um alvo de transferência 21d atrás
Recomendou um alvo de transferência 28d atrás

Monitorando agora

138
Jogador Clube Status Habilidade Confiança Observado Última observação Último voto
Žan-Luk Leban NK Celje Ativo 115 / 129 40% 1 05.07.2027 -
Filippo Rinaldi Parma Ativo 127 / 121 40% 1 05.07.2027 -
Temirlan Anarbekov Kairat Ativo 122 / 111 40% 6 29.05.2027 -
Toby Steward Portsmouth Ativo 106 / 126 40% 2 28.05.2027 -
Sergio Barlocco Trento Ativo 109 / 119 40% 4 27.05.2027 -
Fedor Lapoukhov Osasuna Ativo 114 / 125 40% 3 26.05.2027 -
Muhammadyusuf Sobirov Bunyodkor Ativo 93 / 119 40% 1 26.05.2027 -
Facundo Vila Estudiantes Ativo 100 / 110 40% 1 24.05.2027 -
Matteo Rizzo Cosenza Ativo 114 / 104 40% 5 22.05.2027 -
Pietro Reggiori Pro Patria Ativo 87 / 102 40% 3 20.05.2027 -
Eliás Montiel Borussia Dortmund Ativo 120 / 125 40% 1 20.05.2027 -
Samuel Lucero Defensa y Justicia Ativo 116 / 132 40% 1 20.05.2027 -
Francis Gomez Cardiff City Ativo 111 / 121 40% 2 19.05.2027 -
Bongani Jali Free State Stars Ativo 85 / 107 40% 3 19.05.2027 -
Elia Boseggia Novara Ativo 117 / 104 40% 3 13.05.2027 -
Gor Matinyan Urartu Ativo 119 / 101 40% 1 13.05.2027 -
Kazunari Kita Real Sociedad Ativo 98 / 117 40% 3 10.05.2027 -
Rhys Walters Port Vale Ativo 111 / 102 40% 1 10.05.2027 -
Ludovico Del Sorbo Sorrento Ativo 97 / 124 40% 2 08.05.2027 -
Salvador Blopá Sporting CP Ativo 107 / 131 40% 4 08.05.2027 -
Nikita Kokarev Spartak Moscow Ativo 115 / 118 40% 6 08.05.2027 -
Charlie Gray Fleetwood Town Ativo 79 / 100 40% 4 06.05.2027 -
Sascha Britschgi AC Milan Ativo 111 / 118 40% 3 06.05.2027 -
Olivier Leroux Mouscron Ativo 84 / 100 40% 4 06.05.2027 -
Ezra Mayers West Ham United Ativo 125 / 122 40% 2 04.05.2027 -
Samuele di Benedetto Twente Ativo 117 / 129 40% 2 04.05.2027 -
Tiago Freitas Benfica Ativo 107 / 101 40% 2 03.05.2027 -
Riley Owen Stevenage Ativo 109 / 111 40% 3 03.05.2027 -
Leandro Brey Boca Juniors Ativo 134 / 131 40% 2 28.04.2027 -
Simone Kosijer Triestina Ativo 99 / 93 40% 2 26.04.2027 -
Frankarlos Benítez Caracas Ativo 105 / 110 40% 1 26.04.2027 -
Miguel Figueiredo Benfica Ativo 99 / 127 40% 2 24.04.2027 -
Leandro Martins Benfica Ativo 94 / 95 40% 1 24.04.2027 -
Rhys Chadwick AFC Wimbledon Ativo 108 / 98 40% 1 23.04.2027 -
Bence Dárdai VfL Wolfsburg Ativo 126 / 142 40% 1 23.04.2027 -
William Rovida Pro Patria Ativo 92 / 95 40% 1 21.04.2027 -
Alexandro Maidana Eibar Ativo 116 / 127 40% 6 19.04.2027 -
Konta Ismaily Ativo 89 / 114 40% 1 17.04.2027 -
Kiani Inge Groningen Ativo 101 / 122 40% 1 15.04.2027 -
Francesco D'Alterio Ternana Ativo 97 / 108 40% 3 12.04.2027 -
Gonçalo Oliveira Benfica Ativo 118 / 125 40% 2 08.04.2027 -
Ivan Giraldo Valencia Ativo 115 / 126 40% 5 07.04.2027 -
Josh King Newcastle United Ativo 128 / 138 40% 1 07.04.2027 -
Germán Barbas Burgos Ativo 112 / 117 40% 1 07.04.2027 -
Enzo Koffi Olympique de Marseille Ativo 110 / 103 40% 1 03.04.2027 -
Vladimir Nazarov Pakhtakor Ativo 98 / 113 40% 2 01.04.2027 -
Luka Baš Koper Ativo 97 / 103 40% 2 30.03.2027 -
Jake Batty Plymouth Argyle Ativo 87 / 110 40% 1 29.03.2027 -
Joe Whitworth Wigan Athletic Ativo 112 / 114 40% 5 25.03.2027 -
Filip Marschall Stevenage Ativo 101 / 103 40% 3 25.03.2027 -
Afriyie Sulemana WAFA Ativo 82 / 84 40% 1 25.03.2027 -
Halam Loboa Sevilla Ativo 108 / 128 40% 2 21.03.2027 -
James Trafford Leeds United Ativo 133 / 150 40% 4 16.03.2027 -
Levan Tandilashvili Egnatia Rrogozhinë Ativo 96 / 119 40% 2 15.03.2027 -
Nico O'Reilly Manchester City Ativo 145 / 158 40% 2 15.03.2027 -
Kamaldeen Atiemo Wa All Stars Ativo 111 / 113 40% 1 15.03.2027 -
Cemran Dansin Orlando Pirates Ativo 103 / 123 40% 2 14.03.2027 -
Caleb Yirenkyi Coventry City Ativo 142 / 134 40% 1 14.03.2027 -
Axel Frugone Athletic Bilbao Ativo 111 / 125 40% 1 12.03.2027 -
Leandrinho Sharjah Ativo 122 / 105 40% 2 11.03.2027 -
Halldór Snær Georgsson KR Ativo 114 / 96 40% 1 10.03.2027 -
Oliver Dovin Coventry City Ativo 116 / 137 40% 5 09.03.2027 -
Samuele Diodato Lumezzane Ativo 96 / 95 40% 1 09.03.2027 -
Federico Losas Chacarita Juniors Ativo 107 / 108 40% 7 08.03.2027 -
Radek Vítek Middlesbrough Ativo 133 / 136 40% 3 08.03.2027 -
Heorhii Yermakov Metalist Ativo 110 / 112 40% 3 01.03.2027 -
Shahriar Rezaeian Siah Jamegan Ativo 97 / 121 40% 2 01.03.2027 -
Nicolás Bolcato Independiente Rivadavia Ativo 106 / 113 40% 2 28.02.2027 -
Melker Ellborg Sunderland Ativo 118 / 129 40% 3 22.02.2027 -
Zion Suzuki Aston Villa Ativo 139 / 129 40% 5 21.02.2027 -
Jan Bürger Northampton Town Ativo 99 / 113 40% 1 19.02.2027 -
Cam Bragg West Ham United Ativo 129 / 121 40% 1 18.02.2027 -
Josh Keeley Luton Town Ativo 125 / 117 40% 2 15.02.2027 -
Alexandr Koryakin Krasnodar Ativo 122 / 116 40% 4 14.02.2027 -
Cesare Galeotti Trapani Ativo 93 / 113 40% 1 13.02.2027 -
Matvey Kislyak CSKA Moscow Ativo 136 / 125 40% 2 12.02.2027 -
Jorge Moreno Athletic Bilbao Ativo 112 / 120 40% 1 12.02.2027 -
Zane Albarus Shrewsbury Town Ativo 79 / 107 40% 1 10.02.2027 -
Martim Cunha Porto Ativo 111 / 103 40% 1 09.02.2027 -
Jenson Jones Walsall Ativo 85 / 103 40% 1 09.02.2027 -
Lucas Mbamba Westerlo Ativo 99 / 107 40% 1 07.02.2027 -
James Dornelly Peterborough United Ativo 93 / 109 40% 1 03.02.2027 -
Marvin Keller Chelsea Ativo 154 / 135 40% 1 02.02.2027 -
Tommaso Cecotti Carpi Ativo 80 / 99 40% 1 02.02.2027 -
Lucas Agazzi Villarreal Ativo 116 / 134 40% 1 02.02.2027 -
Jeremías Merlo Gimnasia La Plata Ativo 109 / 139 62% 1 28.12.2026 Aprovar
John Mercado Sparta Prague Ativo 131 / 114 40% 1 06.12.2026 -
Mohau Nkota Al-Ettifaq Ativo 110 / 117 40% 1 03.12.2026 -
Ivan Pakholiuk Kolos Ativo 97 / 119 40% 2 29.11.2026 -
Robin Roefs Sunderland Ativo 142 / 139 40% 3 27.11.2026 -
Pascal Loretz Luzern Ativo 129 / 137 40% 3 25.11.2026 -
Franko Kolić Istra 1961 Ativo 114 / 123 40% 2 23.11.2026 -
Mate Modric Zadar Ativo 120 / 102 40% 3 21.11.2026 -
Alexander Lyng SonderjyskE Ativo 126 / 108 40% 1 20.11.2026 -
Ángel González Libertad Ativo 96 / 117 40% 2 14.11.2026 -
Laureano Martínez Talleres Ativo 111 / 99 40% 1 10.11.2026 -
Will Lankshear Middlesbrough Ativo 114 / 114 40% 1 09.11.2026 -
Ezekiel Kwame Alladoh Philadelphia Union Ativo 121 / 123 40% 2 06.11.2026 -
Strahinja Manojlović Radnicki Nis Ativo 102 / 113 40% 4 06.11.2026 -
Mateus Mané Burnley Ativo 117 / 149 40% 1 03.11.2026 -
Ľubomír Belko Viking Ativo 124 / 120 40% 2 27.10.2026 -
Xavier Biscayzacú Defensor Sporting Ativo 130 / 128 40% 5 25.10.2026 -
Luciano Cosentino Wanderers Ativo 126 / 118 40% 1 17.10.2026 -
Bénie Traoré New York City Ativo 123 / 110 40% 2 16.10.2026 -
Alejandro Pozo Standard Liege Ativo 122 / 118 40% 1 16.10.2026 -
David Da Costa Portland Timbers Ativo 136 / 114 40% 1 16.10.2026 -
Esteban da Silva Racing Ativo 103 / 122 40% 2 10.10.2026 -
George Wickens Lincoln City Ativo 127 / 110 40% 1 10.10.2026 -
Gabriel Monjes Hamrun Spartans Ativo 71 / 84 40% 1 08.10.2026 -
Ihojan Pérez Cerro Largo Ativo 94 / 105 40% 1 08.10.2026 -
Luka Andrade Montevideo City Torque Ativo 91 / 100 40% 2 07.10.2026 -
Jorge Jimenez Veracruz Ativo 87 / 115 40% 1 07.10.2026 -
Favio Cabral Mitre Ativo 125 / 108 40% 1 05.10.2026 -
Rafael Moreno Atletico Venezuela Ativo 94 / 115 40% 2 03.10.2026 -
Enrique Almeida Cerro Largo Ativo 96 / 91 40% 2 01.10.2026 -
Agustín Ruberto River Plate Ativo 114 / 136 40% 1 01.10.2026 -
Germán Berterame Inter Miami CF Ativo 135 / 120 40% 1 30.09.2026 -
Novak Mićović LA Galaxy Ativo 96 / 112 40% 2 28.09.2026 -
Andreas Jungdal Westerlo Ativo 123 / 130 40% 2 27.09.2026 -
Jalal Abdullai Molde Ativo 111 / 119 40% 1 27.09.2026 -
David Fernández O'Higgins Ativo 99 / 111 40% 1 27.09.2026 -
Dylan Cabral Arsenal Ativo 87 / 99 40% 1 24.09.2026 -
Facundo Núñez Liverpool Montevideo Ativo 81 / 97 40% 3 22.09.2026 -
Tiago Pucciarelli IF Elfsborg Ativo 107 / 116 40% 2 19.09.2026 -
Francisco Bonfiglio Boston River Ativo 113 / 107 40% 1 19.09.2026 -
Ángel González Sportivo Luqueno Ativo 95 / 93 40% 1 18.09.2026 -
Bryan González Guadalajara Ativo 116 / 142 40% 1 17.09.2026 -
Árni Marinó Einarsson IA Ativo 112 / 106 40% 1 15.09.2026 -
Doğan Alemdar Basaksehir Ativo 98 / 102 40% 1 14.09.2026 -
Juan Cruz de los Santos Nacional Ativo 130 / 120 40% 1 13.09.2026 -
Patrick Preciado Deportivo Pasto Ativo 94 / 100 40% 1 10.09.2026 -
Alex Woiski Deportivo Tachira Ativo 88 / 98 40% 1 05.09.2026 -
Sławomir Abramowicz Jagiellonia Ativo 105 / 130 40% 2 02.09.2026 -
Santiago Roggero Gimnasia y Esgrima Ativo 107 / 119 40% 2 31.08.2026 -
Nahuel Galardi Maipú Ativo 96 / 99 40% 1 28.08.2026 -
Luis Palacios Tigres Ativo 97 / 113 40% 1 14.08.2026 -
Tomás Ahumada Audax Italiano Ativo 99 / 101 40% 1 05.08.2026 -
Bautista Tomatis Racing Ativo 96 / 119 40% 1 03.08.2026 -